createdAt,value
2022-11-22T00:01:09.447Z,13.62
2022-11-22T00:03:36.861Z,13.73
2022-11-22T00:06:03.107Z,13.69
2022-11-22T00:08:31.469Z,13.51
2022-11-22T00:10:57.845Z,13.44
2022-11-22T00:13:25.785Z,13.38
2022-11-22T00:15:52.904Z,13.40
2022-11-22T00:18:19.154Z,13.43
2022-11-22T00:20:46.960Z,13.37
2022-11-22T00:23:13.222Z,13.37
2022-11-22T00:25:39.443Z,13.22
2022-11-22T00:28:06.787Z,13.08
2022-11-22T00:30:33.233Z,13.04
2022-11-22T00:33:01.460Z,12.95
2022-11-22T00:35:27.740Z,12.84
2022-11-22T00:37:54.557Z,12.70
2022-11-22T00:40:21.509Z,12.71
2022-11-22T00:42:47.733Z,12.67
2022-11-22T00:45:14.863Z,12.54
2022-11-22T00:47:42.465Z,12.48
2022-11-22T00:50:08.988Z,12.40
2022-11-22T00:52:35.871Z,12.23
2022-11-22T00:55:04.057Z,12.13
2022-11-22T00:57:31.041Z,12.11
2022-11-22T00:59:58.312Z,12.05
2022-11-22T01:02:24.597Z,11.97
2022-11-22T01:04:52.059Z,11.86
2022-11-22T01:07:18.355Z,11.71
2022-11-22T01:09:47.755Z,11.68
2022-11-22T01:12:15.187Z,11.54
2022-11-22T01:14:43.716Z,11.59
2022-11-22T01:17:12.017Z,11.66
2022-11-22T01:19:38.323Z,11.50
2022-11-22T01:22:06.062Z,11.42
2022-11-22T01:24:32.382Z,11.31
2022-11-22T01:26:59.213Z,11.17
2022-11-22T01:29:29.138Z,11.09
2022-11-22T01:31:55.516Z,10.95
2022-11-22T01:34:21.836Z,11.02
2022-11-22T01:36:48.955Z,11.09
2022-11-22T01:39:17.419Z,11.00
2022-11-22T01:41:43.954Z,11.05
2022-11-22T01:44:12.242Z,11.11
2022-11-22T01:46:38.611Z,11.16
2022-11-22T01:49:05.944Z,11.23
2022-11-22T01:51:33.063Z,11.29
2022-11-22T01:54:00.597Z,11.28
2022-11-22T01:56:26.869Z,11.20
2022-11-22T01:58:53.148Z,11.13
2022-11-22T02:01:19.679Z,11.02
2022-11-22T02:03:46.063Z,10.91
2022-11-22T02:06:13.976Z,10.81
2022-11-22T02:08:41.660Z,10.69
2022-11-22T02:11:07.938Z,10.66
2022-11-22T02:13:35.455Z,10.66
2022-11-22T02:16:03.346Z,10.67
2022-11-22T02:18:29.746Z,10.64
2022-11-22T02:20:57.904Z,10.71
2022-11-22T02:23:24.180Z,10.66
2022-11-22T02:25:50.468Z,10.71
2022-11-22T02:28:16.788Z,10.88
2022-11-22T02:30:43.039Z,11.08
2022-11-22T02:33:09.332Z,11.09
2022-11-22T02:35:35.616Z,11.02
2022-11-22T02:38:01.911Z,11.01
2022-11-22T02:40:28.340Z,11.02
2022-11-22T02:42:56.477Z,11.06
2022-11-22T02:45:22.942Z,11.17
2022-11-22T02:47:50.632Z,11.23
2022-11-22T02:50:16.970Z,11.29
2022-11-22T02:52:43.246Z,11.29
2022-11-22T02:55:11.181Z,11.34
2022-11-22T02:57:39.230Z,11.49
2022-11-22T03:00:05.531Z,11.55
2022-11-22T03:02:31.879Z,11.47
2022-11-22T03:04:58.135Z,11.46
2022-11-22T03:07:24.516Z,11.61
2022-11-22T03:09:51.976Z,11.62
2022-11-22T03:12:19.972Z,11.63
2022-11-22T03:14:48.469Z,11.65
2022-11-22T03:17:16.315Z,11.72
2022-11-22T03:19:43.585Z,11.74
2022-11-22T03:22:11.676Z,11.77
2022-11-22T03:24:38.457Z,11.78
2022-11-22T03:27:04.733Z,11.76
2022-11-22T03:29:31.209Z,11.87
2022-11-22T03:31:57.732Z,11.92
2022-11-22T03:34:25.244Z,11.93
2022-11-22T03:36:51.531Z,11.92
2022-11-22T03:39:20.312Z,11.87
2022-11-22T03:41:47.207Z,11.90
2022-11-22T03:44:14.682Z,11.82
2022-11-22T03:46:40.980Z,11.70
2022-11-22T03:49:07.522Z,11.64
2022-11-22T03:51:34.823Z,11.47
2022-11-22T03:54:01.093Z,11.45
2022-11-22T03:56:28.179Z,11.59
2022-11-22T03:58:54.820Z,11.58
2022-11-22T04:01:21.194Z,11.49
2022-11-22T04:03:47.787Z,11.40
2022-11-22T04:06:14.181Z,11.40
2022-11-22T04:08:40.859Z,11.37
2022-11-22T04:11:07.162Z,11.40
2022-11-22T04:13:33.502Z,11.42
2022-11-22T04:16:04.306Z,11.20
2022-11-22T04:18:30.586Z,11.25
2022-11-22T04:20:56.865Z,11.28
2022-11-22T04:23:23.913Z,11.38
2022-11-22T04:25:53.245Z,11.38
2022-11-22T04:28:20.187Z,11.35
2022-11-22T04:30:46.438Z,11.31
2022-11-22T04:33:12.698Z,11.42
2022-11-22T04:35:40.400Z,11.53
2022-11-22T04:38:06.740Z,11.45
2022-11-22T04:40:33.639Z,11.41
2022-11-22T04:43:03.498Z,11.42
2022-11-22T04:45:29.801Z,11.43
2022-11-22T04:47:56.066Z,11.51
2022-11-22T04:50:23.675Z,11.47
2022-11-22T04:52:51.255Z,11.25
2022-11-22T04:55:17.595Z,11.40
2022-11-22T04:57:44.452Z,11.43
2022-11-22T05:00:11.539Z,11.56
2022-11-22T05:02:37.794Z,11.66
2022-11-22T05:05:04.522Z,11.66
2022-11-22T05:07:33.381Z,11.64
2022-11-22T05:10:02.595Z,11.60
2022-11-22T05:12:29.539Z,11.61
2022-11-22T05:14:56.440Z,11.65
2022-11-22T05:17:22.706Z,12.26
2022-11-22T05:19:49.835Z,12.88
2022-11-22T05:22:17.533Z,13.38
2022-11-22T05:24:44.512Z,13.77
2022-11-22T05:27:10.766Z,14.03
2022-11-22T05:29:37.311Z,14.23
2022-11-22T05:32:04.219Z,14.41
2022-11-22T05:34:32.316Z,14.57
2022-11-22T05:36:59.682Z,14.71
2022-11-22T05:39:25.949Z,14.80
2022-11-22T05:41:54.168Z,14.90
2022-11-22T05:44:20.429Z,14.97
2022-11-22T05:46:47.117Z,15.04
2022-11-22T05:49:16.303Z,15.13
2022-11-22T05:51:43.712Z,15.19
2022-11-22T05:54:09.939Z,15.23
2022-11-22T05:56:38.522Z,15.27
2022-11-22T05:59:05.750Z,15.34
2022-11-22T06:01:33.271Z,15.41
2022-11-22T06:03:59.615Z,15.45
2022-11-22T06:06:27.034Z,15.50
2022-11-22T06:08:53.310Z,15.56
2022-11-22T06:11:19.572Z,15.61
2022-11-22T06:13:47.208Z,15.64
2022-11-22T06:16:13.497Z,15.68
2022-11-22T06:18:39.755Z,15.73
2022-11-22T06:21:07.623Z,15.76
2022-11-22T06:23:36.519Z,15.81
2022-11-22T06:26:02.823Z,15.84
2022-11-22T06:28:29.186Z,15.88
2022-11-22T06:30:56.448Z,15.91
2022-11-22T06:33:23.969Z,15.94
2022-11-22T06:35:50.322Z,16.00
2022-11-22T06:38:16.564Z,16.02
2022-11-22T06:40:42.866Z,16.05
2022-11-22T06:43:09.200Z,16.07
2022-11-22T06:45:35.522Z,16.11
2022-11-22T06:48:03.333Z,16.13
2022-11-22T06:50:31.392Z,16.17
2022-11-22T06:52:57.719Z,16.20
2022-11-22T06:55:49.119Z,16.23
2022-11-22T06:58:11.287Z,16.27
2022-11-22T07:00:37.663Z,16.29
2022-11-22T07:03:04.175Z,16.32
2022-11-22T07:05:31.412Z,16.34
2022-11-22T07:08:05.500Z,16.36
2022-11-22T07:10:34.382Z,16.38
2022-11-22T07:13:00.655Z,16.40
2022-11-22T07:15:27.888Z,16.40
2022-11-22T07:17:54.460Z,16.43
2022-11-22T07:20:21.396Z,16.45
2022-11-22T07:22:48.099Z,16.47
2022-11-22T07:25:14.352Z,16.49
2022-11-22T07:27:40.617Z,16.52
2022-11-22T07:30:06.990Z,16.54
2022-11-22T07:32:33.905Z,16.58
2022-11-22T07:35:00.190Z,16.60
2022-11-22T07:37:26.972Z,16.63
2022-11-22T07:39:53.544Z,16.66
2022-11-22T07:42:25.803Z,16.69
2022-11-22T07:44:53.949Z,16.71
2022-11-22T07:47:23.049Z,16.73
2022-11-22T07:49:49.585Z,16.73
2022-11-22T07:52:17.425Z,16.73
2022-11-22T07:54:43.710Z,16.74
2022-11-22T07:57:10.096Z,16.73
2022-11-22T07:59:39.881Z,16.75
2022-11-22T08:02:07.204Z,16.77
2022-11-22T08:04:33.563Z,16.77
2022-11-22T08:06:59.934Z,16.80
2022-11-22T08:09:26.730Z,16.79
2022-11-22T08:11:54.845Z,16.79
2022-11-22T08:14:21.396Z,16.80
2022-11-22T08:16:47.966Z,16.81
2022-11-22T08:19:15.217Z,16.81
2022-11-22T08:21:41.612Z,16.81
2022-11-22T08:24:07.926Z,16.84
2022-11-22T08:26:34.302Z,16.86
2022-11-22T08:29:00.553Z,16.87
2022-11-22T08:31:27.475Z,16.86
2022-11-22T08:33:54.196Z,16.85
2022-11-22T08:36:20.601Z,16.85
2022-11-22T08:38:46.935Z,16.85
2022-11-22T08:41:13.614Z,16.83
2022-11-22T08:43:39.924Z,16.84
2022-11-22T08:46:06.757Z,16.83
2022-11-22T08:48:34.010Z,16.83
2022-11-22T08:51:00.380Z,16.82
2022-11-22T08:53:30.625Z,16.83
2022-11-22T08:55:57.978Z,16.84
2022-11-22T08:58:24.251Z,16.83
2022-11-22T09:00:51.067Z,16.83
2022-11-22T09:03:19.099Z,16.84
2022-11-22T09:08:34.385Z,16.87
2022-11-22T09:11:04.076Z,16.89
2022-11-22T09:13:30.423Z,16.92
2022-11-22T09:15:56.709Z,16.94
2022-11-22T09:18:24.247Z,16.97
2022-11-22T09:20:51.113Z,16.98
2022-11-22T09:23:18.008Z,17.00
2022-11-22T09:25:44.428Z,17.00
2022-11-22T09:28:10.794Z,17.00
2022-11-22T09:30:37.444Z,17.01
2022-11-22T09:33:03.845Z,17.00
2022-11-22T09:35:32.066Z,17.00
2022-11-22T09:37:59.540Z,17.03
2022-11-22T09:40:25.826Z,17.05
2022-11-22T09:42:54.292Z,17.06
2022-11-22T09:45:20.587Z,17.09
2022-11-22T09:47:47.009Z,17.09
2022-11-22T09:50:15.441Z,17.08
2022-11-22T09:52:42.148Z,17.09
2022-11-22T09:55:08.832Z,17.09
2022-11-22T09:57:35.148Z,17.10
2022-11-22T10:00:02.608Z,17.10
2022-11-22T10:02:28.999Z,17.11
2022-11-22T10:04:56.408Z,17.11
2022-11-22T10:07:23.967Z,17.12
2022-11-22T10:09:52.419Z,17.14
2022-11-22T10:12:19.159Z,17.17
2022-11-22T10:14:45.425Z,17.18
2022-11-22T10:17:11.694Z,17.19
2022-11-22T10:19:38.262Z,17.18
2022-11-22T10:22:04.632Z,17.19
2022-11-22T10:24:30.962Z,17.18
2022-11-22T10:26:57.268Z,17.16
2022-11-22T10:29:23.607Z,17.15
2022-11-22T10:34:35.574Z,17.19
2022-11-22T10:37:02.177Z,17.20
2022-11-22T10:39:34.051Z,17.21
2022-11-22T10:42:00.809Z,17.22
2022-11-22T10:44:31.589Z,17.25
2022-11-22T10:46:57.880Z,17.26
2022-11-22T10:49:25.427Z,17.30
2022-11-22T10:51:52.315Z,17.32
2022-11-22T10:54:19.497Z,17.35
2022-11-22T10:56:46.573Z,17.38
2022-11-22T10:59:15.332Z,17.41
2022-11-22T11:01:41.688Z,17.45
2022-11-22T11:04:09.359Z,17.47
2022-11-22T11:07:04.554Z,17.51
2022-11-22T11:10:03.398Z,17.53
2022-11-22T11:12:11.902Z,17.55
2022-11-22T11:14:38.169Z,17.55
2022-11-22T11:17:04.535Z,17.57
2022-11-22T11:19:30.832Z,17.58
2022-11-22T11:21:59.524Z,17.57
2022-11-22T11:24:26.987Z,17.58
2022-11-22T11:26:53.703Z,17.58
2022-11-22T11:29:20.000Z,17.59
2022-11-22T11:31:48.800Z,17.60
2022-11-22T11:34:17.389Z,17.58
2022-11-22T11:36:44.086Z,17.59
2022-11-22T11:39:10.723Z,17.58
2022-11-22T11:41:43.166Z,17.58
2022-11-22T11:44:09.838Z,17.58
2022-11-22T11:46:38.197Z,17.57
2022-11-22T11:49:04.444Z,17.57
2022-11-22T11:51:31.562Z,17.56
2022-11-22T11:53:59.354Z,17.57
2022-11-22T11:56:25.681Z,17.56
2022-11-22T11:58:52.448Z,17.57
2022-11-22T12:01:18.837Z,17.55
2022-11-22T12:03:45.360Z,17.56
2022-11-22T12:06:11.660Z,17.57
2022-11-22T12:08:37.952Z,17.56
2022-11-22T12:11:05.513Z,17.57
2022-11-22T12:13:31.898Z,17.58
2022-11-22T12:15:59.273Z,17.57
2022-11-22T12:18:26.189Z,17.59
2022-11-22T12:20:54.338Z,17.62
2022-11-22T12:23:21.726Z,17.65
2022-11-22T12:25:48.317Z,17.68
2022-11-22T12:28:14.701Z,17.71
2022-11-22T12:30:41.032Z,17.70
2022-11-22T12:33:08.488Z,17.71
2022-11-22T12:35:35.161Z,17.72
2022-11-22T12:38:04.507Z,17.75
2022-11-22T12:40:31.169Z,17.79
2022-11-22T12:42:57.568Z,17.82
2022-11-22T12:45:23.831Z,17.83
2022-11-22T12:47:50.515Z,17.82
2022-11-22T12:50:16.984Z,17.82
2022-11-22T12:52:43.267Z,17.83
2022-11-22T12:55:09.792Z,17.82
2022-11-22T12:57:38.228Z,17.85
2022-11-22T13:00:06.271Z,17.87
2022-11-22T13:02:32.556Z,17.86
2022-11-22T13:04:59.045Z,17.86
2022-11-22T13:07:25.447Z,17.87
2022-11-22T13:09:52.386Z,17.85
2022-11-22T13:12:20.234Z,17.86
2022-11-22T13:14:46.990Z,17.84
2022-11-22T13:17:15.447Z,17.83
2022-11-22T13:19:44.342Z,17.82
2022-11-22T13:22:12.828Z,17.80
2022-11-22T13:24:40.451Z,17.79
2022-11-22T13:27:07.181Z,17.78
2022-11-22T13:29:34.381Z,17.77
2022-11-22T13:32:02.155Z,17.76
2022-11-22T13:34:28.694Z,17.76
2022-11-22T13:37:00.566Z,17.75
2022-11-22T13:39:29.969Z,17.74
2022-11-22T13:41:56.254Z,17.73
2022-11-22T13:44:22.888Z,17.71
2022-11-22T13:46:50.267Z,17.71
2022-11-22T13:49:16.811Z,17.70
2022-11-22T13:51:43.493Z,17.69
2022-11-22T13:54:11.998Z,17.68
2022-11-22T13:56:38.731Z,17.67
2022-11-22T13:59:05.104Z,17.67
2022-11-22T14:01:31.946Z,17.67
2022-11-22T14:04:00.770Z,17.68
2022-11-22T14:06:28.426Z,17.68
2022-11-22T14:08:54.718Z,17.67
2022-11-22T14:11:22.065Z,17.69
2022-11-22T14:13:48.367Z,17.67
2022-11-22T14:16:14.781Z,17.67
2022-11-22T14:18:41.385Z,17.66
2022-11-22T14:21:07.674Z,17.65
2022-11-22T14:23:37.875Z,17.65
2022-11-22T14:26:04.183Z,17.64
2022-11-22T14:28:31.683Z,17.63
2022-11-22T14:31:00.199Z,17.62
2022-11-22T14:33:28.036Z,17.62
2022-11-22T14:35:54.605Z,17.61
2022-11-22T14:38:28.554Z,17.60
2022-11-22T14:40:55.046Z,17.58
2022-11-22T14:43:21.635Z,17.57
2022-11-22T14:45:47.921Z,17.56
2022-11-22T14:48:14.297Z,17.55
2022-11-22T14:50:40.608Z,17.53
2022-11-22T14:53:07.337Z,17.53
2022-11-22T14:55:33.959Z,17.51
2022-11-22T14:58:00.259Z,17.51
2022-11-22T15:00:26.610Z,17.50
2022-11-22T15:02:54.250Z,17.49
2022-11-22T15:09:14.767Z,17.48
2022-11-22T15:09:23.872Z,17.48
2022-11-22T15:10:58.189Z,17.47
2022-11-22T15:13:24.812Z,17.45
2022-11-22T15:57:33.775Z,17.31
2022-11-22T16:00:00.755Z,17.28
2022-11-22T16:02:27.160Z,17.27
2022-11-22T16:06:09.509Z,17.25
2022-11-22T16:07:41.684Z,17.23
2022-11-22T16:10:08.047Z,17.23
2022-11-22T16:12:35.219Z,17.23
2022-11-22T16:15:02.918Z,17.23
2022-11-22T16:17:29.266Z,17.23
2022-11-22T16:19:58.364Z,17.23
2022-11-22T16:22:24.732Z,17.25
2022-11-22T16:24:51.141Z,17.26
2022-11-22T16:27:17.481Z,17.27
2022-11-22T16:29:43.883Z,17.29
2022-11-22T16:32:10.473Z,17.30
2022-11-22T16:34:38.436Z,17.31
2022-11-22T16:37:04.968Z,17.33
2022-11-22T16:39:32.936Z,17.34
2022-11-22T16:42:02.110Z,17.36
2022-11-22T16:44:28.400Z,17.38
2022-11-22T16:46:54.741Z,17.39
2022-11-22T16:49:21.250Z,17.40
2022-11-22T16:51:50.049Z,17.41
2022-11-22T16:54:18.283Z,17.42
2022-11-22T16:56:46.698Z,17.43
2022-11-22T16:59:13.438Z,17.44
2022-11-22T17:01:41.820Z,17.44
2022-11-22T17:04:08.107Z,17.45
2022-11-22T17:06:34.424Z,17.45
2022-11-22T17:09:02.086Z,17.45
2022-11-22T17:11:28.613Z,17.45
2022-11-22T17:13:56.664Z,17.45
2022-11-22T17:16:23.363Z,17.46
2022-11-22T17:18:49.704Z,17.45
2022-11-22T17:21:16.011Z,17.46
2022-11-22T17:23:43.375Z,17.46
2022-11-22T17:26:12.434Z,17.46
2022-11-22T17:28:40.522Z,17.46
2022-11-22T17:31:07.426Z,17.48
2022-11-22T17:33:36.818Z,17.47
2022-11-22T17:41:32.838Z,17.47
2022-11-22T17:44:02.165Z,17.46
2022-11-22T17:46:28.414Z,17.47
2022-11-22T17:48:54.688Z,17.46
2022-11-22T17:51:21.677Z,17.45
2022-11-22T17:53:48.580Z,17.45
2022-11-22T17:56:14.868Z,17.45
2022-11-22T17:58:41.171Z,17.45
2022-11-22T18:01:08.153Z,17.46
2022-11-22T18:03:34.447Z,17.45
2022-11-22T18:06:00.788Z,17.45
2022-11-22T18:08:28.378Z,17.45
2022-11-22T18:10:55.419Z,17.44
2022-11-22T18:13:22.247Z,17.44
2022-11-22T18:15:49.524Z,17.43
2022-11-22T18:18:40.403Z,17.42
2022-11-22T18:21:04.244Z,17.41
2022-11-22T18:23:30.485Z,17.41
2022-11-22T18:26:17.046Z,17.40
2022-11-22T18:28:47.088Z,17.40
2022-11-22T18:31:23.504Z,17.39
2022-11-22T18:33:49.912Z,17.40
2022-11-22T18:36:52.956Z,17.40
2022-11-22T18:39:03.905Z,17.41
2022-11-22T18:41:32.208Z,17.39
2022-11-22T18:43:59.743Z,17.40
2022-11-22T18:46:26.005Z,17.41
2022-11-22T18:48:52.263Z,17.41
2022-11-22T18:51:22.755Z,17.42
2022-11-22T18:53:49.959Z,17.42
2022-11-22T18:56:18.049Z,17.30
2022-11-22T18:58:44.448Z,17.42
2022-11-22T19:01:10.735Z,17.41
2022-11-22T19:03:37.165Z,17.41
2022-11-22T19:06:05.838Z,17.42
2022-11-22T19:08:32.135Z,17.42
2022-11-22T19:11:00.224Z,17.43
2022-11-22T19:13:28.229Z,17.42
2022-11-22T19:15:54.779Z,17.44
2022-11-22T19:18:21.042Z,17.45
2022-11-22T19:20:54.997Z,17.45
2022-11-22T19:23:21.652Z,17.48
2022-11-22T19:25:51.992Z,17.50
2022-11-22T19:28:18.942Z,17.51
2022-11-22T19:30:45.204Z,17.52
2022-11-22T19:33:11.525Z,17.53
2022-11-22T19:35:38.366Z,17.53
2022-11-22T19:38:04.747Z,17.55
2022-11-22T19:40:33.000Z,17.56
2022-11-22T19:42:59.255Z,17.56
2022-11-22T19:45:25.958Z,17.58
2022-11-22T19:47:53.892Z,17.58
2022-11-22T19:50:21.432Z,17.60
2022-11-22T19:52:47.703Z,17.61
2022-11-22T19:55:16.008Z,17.62
2022-11-22T19:57:44.123Z,17.64
2022-11-22T20:00:12.669Z,17.64
2022-11-22T20:02:38.982Z,17.64
2022-11-22T20:05:05.402Z,17.66
2022-11-22T20:07:31.657Z,17.65
2022-11-22T20:09:58.314Z,17.65
2022-11-22T20:12:24.618Z,17.66
2022-11-22T20:14:50.932Z,17.67
2022-11-22T20:17:17.616Z,17.68
2022-11-22T20:19:47.323Z,17.67
2022-11-22T20:22:13.651Z,17.67
2022-11-22T20:24:39.919Z,17.68
2022-11-22T20:27:06.964Z,17.68
2022-11-22T20:29:33.290Z,17.69
2022-11-22T20:31:59.636Z,17.67
2022-11-22T20:34:27.491Z,17.68
2022-11-22T20:36:54.945Z,17.67
2022-11-22T20:39:21.240Z,17.68
2022-11-22T20:41:51.399Z,17.65
2022-11-22T20:44:26.129Z,17.65
2022-11-22T20:46:52.650Z,17.65
2022-11-22T20:49:18.964Z,17.65
2022-11-22T20:51:45.302Z,17.65
2022-11-22T20:54:13.629Z,17.65
2022-11-22T20:56:41.000Z,17.66
2022-11-22T20:59:08.123Z,17.63
2022-11-22T21:01:34.503Z,17.64
2022-11-22T21:04:02.828Z,17.64
2022-11-22T21:06:31.480Z,17.64
2022-11-22T21:08:57.816Z,17.63
2022-11-22T21:11:25.401Z,17.63
2022-11-22T21:13:51.816Z,17.64
2022-11-22T21:16:23.727Z,17.64
2022-11-22T21:18:51.313Z,17.64
2022-11-22T21:21:17.596Z,17.64
2022-11-22T21:23:43.861Z,17.63
2022-11-22T21:26:11.421Z,17.64
2022-11-22T21:28:38.935Z,17.64
2022-11-22T21:31:11.453Z,17.64
2022-11-22T21:33:37.806Z,17.65
2022-11-22T21:36:04.278Z,17.64
2022-11-22T21:38:31.482Z,17.64
2022-11-22T21:41:10.828Z,17.65
2022-11-22T21:43:50.018Z,17.65
2022-11-22T21:46:16.804Z,17.65
2022-11-22T21:48:43.346Z,17.65
2022-11-22T21:51:09.717Z,17.65
2022-11-22T21:53:36.497Z,17.65
2022-11-22T21:56:03.205Z,17.65
2022-11-22T21:58:30.225Z,17.65
2022-11-22T22:00:56.805Z,17.64
2022-11-22T22:03:23.277Z,17.64
2022-11-22T22:05:49.583Z,17.62
2022-11-22T22:08:17.299Z,17.62
2022-11-22T22:10:46.826Z,17.63
2022-11-22T22:13:14.526Z,17.61
2022-11-22T22:15:41.220Z,17.63
2022-11-22T22:18:09.729Z,17.63
2022-11-22T22:20:36.405Z,17.62
2022-11-22T22:23:02.787Z,17.62
2022-11-22T22:25:30.594Z,17.61
2022-11-22T22:27:57.192Z,17.62
2022-11-22T22:30:25.035Z,17.61
2022-11-22T22:32:51.981Z,17.61
2022-11-22T22:35:20.327Z,17.60
2022-11-22T22:37:46.734Z,17.59
2022-11-22T22:40:14.020Z,17.59
2022-11-22T22:42:40.393Z,17.58
2022-11-22T22:45:06.739Z,17.57
2022-11-22T22:47:32.987Z,17.55
2022-11-22T22:49:59.271Z,17.55
2022-11-22T22:52:25.626Z,17.55
2022-11-22T22:54:55.451Z,17.55
2022-11-22T22:57:24.190Z,17.53
2022-11-22T22:59:51.383Z,17.52
2022-11-22T23:02:17.655Z,17.53
2022-11-22T23:04:44.379Z,17.51
2022-11-22T23:07:12.557Z,17.51
2022-11-22T23:09:41.477Z,17.49
2022-11-22T23:12:07.738Z,17.49
2022-11-22T23:14:34.011Z,17.47
2022-11-22T23:17:00.317Z,17.47
2022-11-22T23:19:26.600Z,17.46
2022-11-22T23:21:53.183Z,17.45
2022-11-22T23:24:19.492Z,17.44
2022-11-22T23:26:47.851Z,17.42
2022-11-22T23:29:14.918Z,17.42
2022-11-22T23:31:41.697Z,17.41
2022-11-22T23:34:08.451Z,17.40
2022-11-22T23:36:40.287Z,17.40
2022-11-22T23:39:07.301Z,17.40
2022-11-22T23:41:33.650Z,17.38
2022-11-22T23:43:59.893Z,17.37
2022-11-22T23:46:26.180Z,17.35
2022-11-22T23:48:52.522Z,17.35
2022-11-22T23:51:20.075Z,17.34
2022-11-22T23:53:46.332Z,17.33
2022-11-22T23:56:12.577Z,17.33
2022-11-22T23:58:40.356Z,17.31
